Time;durP1;ratioP1;P1;durP2;ratioP2;P2;SDS_P1;SDS_P2;PMS_P1;PMS_P2;Temp;Humidity;BMP_temperature;BMP_pressure;BME280_temperature;BME280_humidity;BME280_pressure;Samples;Min_cycle;Max_cycle;Signal;HPM_P1;HPM_P2
2023/04/18 00:00:09;;;;;;;13.98;12.57;;;9.30;99.90;;;;;;6137395;23;20248;-63
2023/04/18 00:02:37;;;;;;;13.18;11.93;;;9.30;99.90;;;;;;6137781;23;20241;-63
2023/04/18 00:05:04;;;;;;;13.57;12.48;;;9.30;99.90;;;;;;6128303;23;20187;-64
2023/04/18 00:07:31;;;;;;;12.80;11.60;;;9.40;99.90;;;;;;6138028;23;20836;-64
2023/04/18 00:09:58;;;;;;;13.68;12.48;;;9.40;99.90;;;;;;6133285;23;20213;-64
2023/04/18 00:12:25;;;;;;;13.30;12.10;;;9.40;99.90;;;;;;6132881;23;20211;-63
2023/04/18 00:14:54;;;;;;;12.50;11.40;;;9.40;99.90;;;;;;6129952;23;20179;-64
2023/04/18 00:17:21;;;;;;;12.45;11.35;;;9.40;99.90;;;;;;6130028;23;20578;-63
2023/04/18 00:19:48;;;;;;;13.05;11.85;;;9.40;99.90;;;;;;6133975;23;20230;-63
2023/04/18 00:22:21;;;;;;;13.63;12.43;;;9.40;99.90;;;;;;6131412;23;20277;-64
2023/04/18 00:24:48;;;;;;;13.73;12.52;;;9.40;99.90;;;;;;6136758;23;20192;-63
2023/04/18 00:27:15;;;;;;;14.55;13.15;;;9.40;99.90;;;;;;6125384;23;20590;-64
2023/04/18 00:29:42;;;;;;;14.15;12.90;;;9.30;99.90;;;;;;6125820;23;20674;-63
2023/04/18 00:32:11;;;;;;;12.85;11.65;;;9.30;99.90;;;;;;6135070;23;20217;-63
2023/04/18 00:34:39;;;;;;;13.65;12.43;;;9.30;99.90;;;;;;6135854;23;20193;-63
2023/04/18 00:37:06;;;;;;;12.82;11.65;;;9.30;99.90;;;;;;6122885;23;20195;-63
2023/04/18 00:39:35;;;;;;;13.60;12.40;;;9.40;99.90;;;;;;6125014;23;20207;-63
2023/04/18 00:42:02;;;;;;;13.38;12.18;;;9.40;99.90;;;;;;6132749;23;20187;-63
2023/04/18 00:44:30;;;;;;;13.30;12.20;;;9.40;99.90;;;;;;6144591;23;20187;-63
2023/04/18 00:46:57;;;;;;;13.43;12.23;;;9.40;99.90;;;;;;6129146;23;20187;-63
2023/04/18 00:49:26;;;;;;;14.20;12.88;;;9.40;99.90;;;;;;6138257;23;20226;-63
2023/04/18 00:51:55;;;;;;;14.80;13.50;;;9.40;99.90;;;;;;6138857;23;20221;-63
2023/04/18 00:54:24;;;;;;;13.90;12.60;;;9.40;99.90;;;;;;6125525;23;20187;-63
2023/04/18 00:56:51;;;;;;;13.77;12.48;;;9.40;99.90;;;;;;6128591;23;20305;-63
2023/04/18 00:59:22;;;;;;;15.10;13.73;;;9.40;99.90;;;;;;6133477;23;20198;-63
2023/04/18 01:01:49;;;;;;;14.55;13.35;;;9.40;99.90;;;;;;6124190;23;20256;-63
2023/04/18 01:04:16;;;;;;;14.00;12.80;;;9.40;99.90;;;;;;6135137;23;20182;-63
2023/04/18 01:06:45;;;;;;;14.10;12.80;;;9.40;99.90;;;;;;6136194;23;20178;-63
2023/04/18 01:09:13;;;;;;;12.90;11.80;;;9.40;99.90;;;;;;6126807;23;20916;-63
2023/04/18 01:11:40;;;;;;;14.85;13.45;;;9.40;99.90;;;;;;6131156;23;20239;-63
2023/04/18 01:14:08;;;;;;;13.77;12.57;;;9.30;99.90;;;;;;6131699;23;20206;-63
2023/04/18 01:16:37;;;;;;;14.80;13.23;;;9.80;99.90;;;;;;6133924;23;20222;-63
2023/04/18 01:19:05;;;;;;;14.38;13.07;;;9.30;99.90;;;;;;6124067;23;20183;-63
2023/04/18 01:21:35;;;;;;;14.40;13.20;;;9.30;99.90;;;;;;6127861;23;20196;-63
2023/04/18 01:24:11;;;;;;;14.18;12.85;;;9.30;99.90;;;;;;6126747;23;20576;-63
2023/04/18 01:26:39;;;;;;;13.43;12.23;;;9.30;99.90;;;;;;6129380;23;20197;-62
2023/04/18 01:29:06;;;;;;;13.93;12.52;;;9.30;99.90;;;;;;6128649;23;20271;-63
2023/04/18 01:31:35;;;;;;;13.75;12.45;;;9.30;99.90;;;;;;6138906;23;21174;-62
2023/04/18 01:34:02;;;;;;;15.57;14.13;;;9.30;99.90;;;;;;6131867;23;20298;-63
2023/04/18 01:36:29;;;;;;;13.75;12.55;;;9.20;99.90;;;;;;6139523;23;20190;-62
2023/04/18 01:38:56;;;;;;;13.90;12.60;;;9.20;99.90;;;;;;6131378;23;20264;-63
2023/04/18 01:41:26;;;;;;;14.80;13.43;;;9.20;99.90;;;;;;6127286;23;20574;-63
2023/04/18 01:43:53;;;;;;;15.07;13.57;;;9.30;99.90;;;;;;6126382;23;20252;-62
2023/04/18 01:46:20;;;;;;;13.90;12.50;;;9.20;99.90;;;;;;6121518;23;20260;-63
2023/04/18 01:48:47;;;;;;;13.90;12.60;;;9.20;99.90;;;;;;6122588;23;20196;-63
2023/04/18 01:51:14;;;;;;;14.50;13.20;;;9.10;99.90;;;;;;6122805;23;20209;-63
2023/04/18 01:53:42;;;;;;;14.02;12.80;;;9.10;99.90;;;;;;6126105;23;20751;-63
2023/04/18 01:56:09;;;;;;;13.63;12.32;;;9.10;99.90;;;;;;6126414;23;20690;-63
2023/04/18 01:58:37;;;;;;;13.10;11.85;;;9.00;99.90;;;;;;6131721;23;20266;-63
2023/04/18 02:01:05;;;;;;;14.43;13.10;;;9.00;99.90;;;;;;6128665;23;20209;-63
2023/04/18 02:03:32;;;;;;;14.07;12.88;;;9.40;99.90;;;;;;6119377;23;20191;-63
2023/04/18 02:06:00;;;;;;;13.80;12.55;;;9.00;99.90;;;;;;6122957;23;20621;-63
2023/04/18 02:08:29;;;;;;;13.85;12.50;;;9.00;99.90;;;;;;6127184;23;20754;-63
2023/04/18 02:10:56;;;;;;;13.18;11.98;;;8.90;99.90;;;;;;6132917;23;20206;-63
2023/04/18 02:13:23;;;;;;;14.57;13.10;;;9.20;99.90;;;;;;6133261;23;20233;-62
2023/04/18 02:15:52;;;;;;;14.15;12.95;;;8.90;99.90;;;;;;6140797;23;20193;-63
2023/04/18 02:18:20;;;;;;;12.73;11.60;;;9.00;99.90;;;;;;6133430;23;20190;-64
2023/04/18 02:20:48;;;;;;;12.68;11.55;;;9.00;99.90;;;;;;6134933;23;20240;-64
2023/04/18 02:23:15;;;;;;;12.40;11.30;;;9.00;99.90;;;;;;6132839;23;20191;-64
2023/04/18 02:25:42;;;;;;;13.23;12.02;;;9.00;99.90;;;;;;6135679;23;20587;-64
2023/04/18 02:28:09;;;;;;;11.93;10.93;;;9.00;99.90;;;;;;6132846;23;20269;-62
2023/04/18 02:30:36;;;;;;;11.40;10.40;;;8.90;99.90;;;;;;6126046;23;20686;-62
2023/04/18 02:33:05;;;;;;;12.73;11.63;;;9.00;99.90;;;;;;6125166;23;20333;-62
2023/04/18 02:35:32;;;;;;;12.32;11.23;;;9.00;99.90;;;;;;6123122;23;20546;-62
2023/04/18 02:37:59;;;;;;;13.60;12.40;;;9.00;99.90;;;;;;6137179;23;20189;-64
2023/04/18 02:40:26;;;;;;;13.63;12.32;;;9.00;99.90;;;;;;6137495;23;20743;-64
2023/04/18 02:42:54;;;;;;;12.98;11.68;;;9.00;99.90;;;;;;6128679;23;20179;-64
2023/04/18 02:45:21;;;;;;;12.82;11.60;;;9.00;99.90;;;;;;6128893;23;20182;-64
2023/04/18 02:47:48;;;;;;;13.00;11.77;;;9.00;99.90;;;;;;6134677;23;20220;-64
2023/04/18 02:50:16;;;;;;;13.38;12.18;;;8.90;99.90;;;;;;6141350;23;20229;-64
2023/04/18 02:52:43;;;;;;;13.65;11.93;;;8.90;99.90;;;;;;6133771;23;20241;-64
2023/04/18 02:55:10;;;;;;;12.45;11.23;;;8.90;99.90;;;;;;6131766;23;20193;-64
2023/04/18 02:57:38;;;;;;;12.35;11.23;;;8.80;99.90;;;;;;6128745;23;20248;-64
2023/04/18 03:00:07;;;;;;;13.30;12.00;;;8.80;99.90;;;;;;6139151;23;20213;-64
2023/04/18 03:02:34;;;;;;;12.65;11.48;;;8.80;99.90;;;;;;6134225;23;20194;-64
2023/04/18 03:05:01;;;;;;;12.73;11.52;;;8.70;99.90;;;;;;6131746;23;20217;-65
2023/04/18 03:07:30;;;;;;;13.93;12.73;;;8.70;99.90;;;;;;6131789;23;20195;-64
2023/04/18 03:09:57;;;;;;;13.25;12.05;;;8.60;99.90;;;;;;6133024;23;20212;-64
2023/04/18 03:12:24;;;;;;;14.32;12.65;;;9.00;99.90;;;;;;6135072;23;20569;-64
2023/04/18 03:14:51;;;;;;;14.45;13.00;;;8.60;99.90;;;;;;6127553;23;20219;-64
2023/04/18 03:17:18;;;;;;;13.35;12.00;;;8.60;99.90;;;;;;6133833;23;20661;-64
2023/04/18 03:19:46;;;;;;;13.23;12.02;;;8.60;99.90;;;;;;6129028;23;20205;-64
2023/04/18 03:22:13;;;;;;;13.90;12.43;;;8.50;99.90;;;;;;6120704;23;20685;-64
2023/04/18 03:24:42;;;;;;;13.70;12.30;;;8.80;99.90;;;;;;6136796;23;20192;-64
2023/04/18 03:27:10;;;;;;;13.50;12.30;;;8.50;99.90;;;;;;6120530;23;20269;-64
2023/04/18 03:29:37;;;;;;;13.60;12.40;;;8.50;99.90;;;;;;6142273;23;20590;-64
2023/04/18 03:32:05;;;;;;;14.40;13.00;;;8.50;99.90;;;;;;6136065;23;20182;-64
2023/04/18 03:34:32;;;;;;;14.07;12.80;;;8.50;99.90;;;;;;6133826;23;20267;-64
2023/04/18 03:36:59;;;;;;;13.48;12.18;;;8.40;99.90;;;;;;6131396;23;20183;-64
2023/04/18 03:39:26;;;;;;;13.65;12.35;;;8.40;99.90;;;;;;6140413;23;20716;-62
2023/04/18 03:41:55;;;;;;;16.05;14.55;;;8.40;99.90;;;;;;6127684;23;20527;-62
2023/04/18 03:44:22;;;;;;;13.80;12.60;;;8.40;99.90;;;;;;6123656;23;20186;-62
2023/04/18 03:46:49;;;;;;;15.20;13.80;;;8.40;99.90;;;;;;6123840;23;20214;-62
2023/04/18 03:49:17;;;;;;;13.93;12.40;;;8.70;99.90;;;;;;6131495;23;20274;-64
2023/04/18 03:51:46;;;;;;;14.30;13.00;;;8.30;99.90;;;;;;6128243;23;20641;-62
2023/04/18 03:54:14;;;;;;;13.27;12.07;;;8.60;99.90;;;;;;6133376;23;20212;-62
2023/04/18 03:56:41;;;;;;;15.88;14.45;;;8.30;99.90;;;;;;6136342;23;20267;-62
2023/04/18 03:59:09;;;;;;;15.23;13.80;;;8.30;99.90;;;;;;6142930;23;20286;-62
2023/04/18 04:01:37;;;;;;;15.45;14.05;;;8.30;99.90;;;;;;6128443;23;20189;-62
2023/04/18 04:04:05;;;;;;;18.80;17.10;;;8.30;99.90;;;;;;6121738;23;20685;-62
2023/04/18 04:06:32;;;;;;;22.33;19.95;;;8.60;99.90;;;;;;6133350;23;21548;-62
2023/04/18 04:08:59;;;;;;;20.20;18.40;;;8.20;99.90;;;;;;6130709;23;20617;-63
2023/04/18 04:11:27;;;;;;;16.45;14.85;;;8.20;99.90;;;;;;6137115;23;20189;-62
2023/04/18 04:13:54;;;;;;;17.08;15.50;;;8.20;99.90;;;;;;6133422;23;20675;-62
2023/04/18 04:16:22;;;;;;;17.60;16.00;;;8.20;99.90;;;;;;6124891;23;20193;-63
2023/04/18 04:18:50;;;;;;;15.05;13.73;;;8.20;99.90;;;;;;6121920;23;20401;-62
2023/04/18 04:21:17;;;;;;;15.82;14.43;;;8.20;99.90;;;;;;6130233;23;20205;-63
2023/04/18 04:23:45;;;;;;;17.45;15.73;;;8.20;99.90;;;;;;6125970;23;20847;-63
2023/04/18 04:26:13;;;;;;;16.17;14.68;;;8.20;99.90;;;;;;6132001;23;20232;-62
2023/04/18 04:28:41;;;;;;;16.70;15.05;;;8.20;99.90;;;;;;6128744;23;20916;-62
2023/04/18 04:31:09;;;;;;;16.50;15.10;;;8.20;99.90;;;;;;6125456;23;20179;-64
2023/04/18 04:33:38;;;;;;;16.98;15.48;;;8.20;99.90;;;;;;6134734;23;20611;-64
2023/04/18 04:36:07;;;;;;;16.55;14.95;;;8.20;99.90;;;;;;6126712;23;20184;-63
2023/04/18 04:38:37;;;;;;;15.52;14.13;;;8.20;99.90;;;;;;6125896;23;20788;-62
2023/04/18 04:41:06;;;;;;;16.40;14.90;;;8.60;99.90;;;;;;6141205;23;20624;-77
2023/04/18 04:43:33;;;;;;;16.73;15.15;;;8.20;99.90;;;;;;6126146;23;20294;-62
2023/04/18 04:46:02;;;;;;;16.65;15.15;;;8.20;99.90;;;;;;6134604;23;20188;-63
2023/04/18 04:48:30;;;;;;;16.95;15.45;;;8.20;99.90;;;;;;6142952;23;20201;-63
2023/04/18 04:50:59;;;;;;;16.25;14.85;;;8.20;99.90;;;;;;6139596;23;20628;-63
2023/04/18 04:53:29;;;;;;;16.33;14.82;;;8.20;99.90;;;;;;6134022;23;20213;-63
2023/04/18 04:55:57;;;;;;;15.68;14.18;;;8.20;99.90;;;;;;6144560;23;20183;-63
2023/04/18 04:58:24;;;;;;;15.88;14.45;;;8.50;99.90;;;;;;6135681;23;20271;-63
2023/04/18 05:00:52;;;;;;;16.10;14.50;;;8.20;99.90;;;;;;6144408;23;20184;-63
2023/04/18 05:03:19;;;;;;;15.80;14.40;;;8.20;99.90;;;;;;6133592;23;20216;-64
2023/04/18 05:05:47;;;;;;;15.25;13.55;;;8.20;99.90;;;;;;6133156;23;20184;-63
2023/04/18 05:08:16;;;;;;;15.70;14.35;;;8.20;99.90;;;;;;6147859;23;20190;-63
2023/04/18 05:10:44;;;;;;;15.63;14.13;;;8.20;99.90;;;;;;6133663;23;20188;-64
2023/04/18 05:13:12;;;;;;;14.43;13.13;;;8.20;99.90;;;;;;6137844;23;21015;-63
2023/04/18 05:15:39;;;;;;;16.27;14.73;;;8.20;99.90;;;;;;6147827;23;20273;-63
2023/04/18 05:18:07;;;;;;;14.50;13.10;;;8.20;99.90;;;;;;6146306;23;20192;-63
2023/04/18 05:20:34;;;;;;;14.63;13.32;;;8.20;99.90;;;;;;6140156;23;20209;-63
2023/04/18 05:23:01;;;;;;;15.27;13.85;;;8.20;99.90;;;;;;6140624;23;20221;-63
2023/04/18 05:25:30;;;;;;;14.73;13.32;;;8.20;99.90;;;;;;6137162;23;20276;-63
2023/04/18 05:27:57;;;;;;;15.18;13.77;;;8.20;99.90;;;;;;6126011;23;20876;-63
2023/04/18 05:30:24;;;;;;;14.75;13.30;;;8.20;99.90;;;;;;6122340;23;20208;-63
2023/04/18 05:32:52;;;;;;;14.70;13.30;;;8.40;99.90;;;;;;6139653;23;20193;-63
2023/04/18 05:35:19;;;;;;;14.27;12.98;;;8.30;99.90;;;;;;6133006;23;20188;-63
2023/04/18 05:37:46;;;;;;;15.27;13.88;;;8.20;99.90;;;;;;6139899;23;20229;-63
2023/04/18 05:40:14;;;;;;;15.15;13.65;;;8.30;99.90;;;;;;6142033;23;20224;-63
2023/04/18 05:42:42;;;;;;;14.77;13.38;;;8.30;99.90;;;;;;6137282;23;20193;-63
2023/04/18 05:45:10;;;;;;;14.30;12.90;;;8.30;99.90;;;;;;6129324;23;20182;-64
2023/04/18 05:47:37;;;;;;;14.45;13.05;;;8.40;99.90;;;;;;6135514;23;20208;-64
2023/04/18 05:50:04;;;;;;;13.80;12.50;;;8.40;99.90;;;;;;6139391;23;20208;-65
2023/04/18 05:52:32;;;;;;;13.68;12.38;;;8.40;99.90;;;;;;6129311;23;20189;-63
2023/04/18 05:54:59;;;;;;;14.35;13.05;;;8.50;99.90;;;;;;6145504;23;20679;-63
2023/04/18 05:57:26;;;;;;;15.50;14.00;;;8.50;99.90;;;;;;6144177;23;20575;-63
2023/04/18 05:59:54;;;;;;;14.32;13.05;;;8.50;99.90;;;;;;6140883;23;20203;-63
2023/04/18 06:02:21;;;;;;;14.15;12.85;;;8.50;99.90;;;;;;6129450;23;20594;-62
2023/04/18 06:04:49;;;;;;;14.50;13.10;;;8.60;99.90;;;;;;6123119;23;20277;-63
2023/04/18 06:07:16;;;;;;;14.32;13.05;;;8.60;99.90;;;;;;6138128;23;20187;-63
2023/04/18 06:09:43;;;;;;;14.10;12.93;;;8.70;99.90;;;;;;6137957;23;20689;-63
2023/04/18 06:12:10;;;;;;;13.43;12.13;;;8.80;99.90;;;;;;6131435;23;20210;-63
2023/04/18 06:14:36;;;;;;;14.73;13.32;;;8.80;99.90;;;;;;6144560;23;20279;-63
2023/04/18 06:17:07;;;;;;;14.27;12.88;;;8.90;99.90;;;;;;6146159;23;20346;-64
2023/04/18 06:19:34;;;;;;;13.98;12.48;;;8.90;99.90;;;;;;6131718;23;20210;-63
2023/04/18 06:22:01;;;;;;;13.95;12.65;;;9.00;99.90;;;;;;6142767;23;20240;-63
2023/04/18 06:24:28;;;;;;;13.82;12.45;;;9.00;99.90;;;;;;6134977;23;20270;-63
2023/04/18 06:26:56;;;;;;;14.43;13.02;;;9.10;99.90;;;;;;6136896;23;20218;-63
2023/04/18 06:29:26;;;;;;;14.20;12.95;;;9.20;99.90;;;;;;6138469;23;20607;-63
2023/04/18 06:31:53;;;;;;;14.10;12.90;;;9.20;99.90;;;;;;6127253;23;20685;-63
2023/04/18 06:34:21;;;;;;;14.98;13.57;;;9.20;99.90;;;;;;6138802;23;20210;-63
2023/04/18 06:36:48;;;;;;;13.95;12.63;;;9.20;99.90;;;;;;6137361;23;20188;-63
2023/04/18 06:39:15;;;;;;;15.50;13.98;;;9.20;99.90;;;;;;6138207;23;20207;-63
2023/04/18 06:41:42;;;;;;;14.05;12.70;;;9.20;99.90;;;;;;6146207;23;20662;-63
2023/04/18 06:44:09;;;;;;;15.30;13.90;;;9.20;99.90;;;;;;6141795;23;20280;-63
2023/04/18 06:46:36;;;;;;;14.57;13.18;;;9.30;99.90;;;;;;6142673;23;20188;-63
2023/04/18 06:49:03;;;;;;;16.63;14.45;;;9.40;99.90;;;;;;6138831;23;20273;-63
2023/04/18 06:51:32;;;;;;;21.35;14.75;;;9.40;99.90;;;;;;6131269;23;20266;-63
2023/04/18 06:54:00;;;;;;;14.52;13.13;;;9.50;99.90;;;;;;6134983;23;20219;-63
2023/04/18 06:56:28;;;;;;;13.80;12.60;;;9.50;99.90;;;;;;6143768;23;20726;-63
2023/04/18 06:58:55;;;;;;;14.90;13.48;;;9.50;99.90;;;;;;6133334;23;20269;-63
2023/04/18 07:01:22;;;;;;;13.82;12.52;;;9.50;99.90;;;;;;6125785;23;20659;-63
2023/04/18 07:03:49;;;;;;;14.15;12.80;;;9.60;99.90;;;;;;6144638;23;20274;-63
2023/04/18 07:06:16;;;;;;;13.82;12.32;;;9.60;99.90;;;;;;6141165;23;20197;-63
2023/04/18 07:08:45;;;;;;;13.02;11.82;;;9.70;99.90;;;;;;6131922;23;20251;-63
2023/04/18 07:11:12;;;;;;;14.20;12.90;;;9.80;99.90;;;;;;6141018;23;20609;-62
2023/04/18 07:13:39;;;;;;;18.92;13.15;;;9.80;99.90;;;;;;6137613;23;20203;-63
2023/04/18 07:16:07;;;;;;;13.77;12.45;;;9.90;99.90;;;;;;6132844;23;20302;-63
2023/04/18 07:18:34;;;;;;;13.45;12.25;;;10.00;99.90;;;;;;6144222;23;20236;-63
2023/04/18 07:21:01;;;;;;;13.60;12.15;;;10.00;99.90;;;;;;6137304;23;20187;-63
2023/04/18 07:23:28;;;;;;;13.27;12.15;;;10.00;99.90;;;;;;6139476;23;20194;-63
2023/04/18 07:25:57;;;;;;;13.05;11.85;;;10.10;99.90;;;;;;6134689;23;20639;-63
2023/04/18 07:28:24;;;;;;;14.93;13.65;;;10.10;99.90;;;;;;6126575;23;20211;-63
2023/04/18 07:30:52;;;;;;;12.75;11.55;;;10.20;99.90;;;;;;6130694;23;20208;-63
2023/04/18 07:33:19;;;;;;;14.05;12.85;;;10.20;99.90;;;;;;6128062;23;20674;-63
2023/04/18 07:35:45;;;;;;;13.02;11.75;;;10.20;99.90;;;;;;6137703;23;20257;-63
2023/04/18 07:38:13;;;;;;;12.95;11.65;;;10.20;99.90;;;;;;6143679;23;20179;-63
2023/04/18 07:40:40;;;;;;;12.95;11.73;;;10.30;99.90;;;;;;6146739;23;20193;-63
2023/04/18 07:43:08;;;;;;;14.30;12.80;;;10.30;99.90;;;;;;6140656;23;20562;-63
2023/04/18 07:45:37;;;;;;;14.05;12.63;;;10.30;99.90;;;;;;6132743;23;20270;-63
2023/04/18 07:48:04;;;;;;;13.60;12.30;;;10.40;99.90;;;;;;6135906;23;20574;-63
2023/04/18 07:50:31;;;;;;;13.32;12.13;;;10.40;99.90;;;;;;6136523;23;20182;-64
2023/04/18 07:52:58;;;;;;;12.70;11.55;;;10.50;99.90;;;;;;6141105;23;20187;-64
2023/04/18 07:55:25;;;;;;;13.02;11.82;;;10.50;99.90;;;;;;6135826;23;20241;-63
2023/04/18 07:57:52;;;;;;;12.73;11.52;;;10.50;99.90;;;;;;6147414;23;20201;-63
2023/04/18 08:00:21;;;;;;;14.07;12.77;;;10.60;99.90;;;;;;6138317;23;20244;-63
2023/04/18 08:02:48;;;;;;;13.95;12.65;;;10.60;99.90;;;;;;6125711;23;20213;-64
2023/04/18 08:05:15;;;;;;;12.73;11.52;;;10.50;99.90;;;;;;6129762;23;20218;-64
2023/04/18 08:07:42;;;;;;;13.82;12.52;;;10.60;99.90;;;;;;6124348;23;20191;-64
2023/04/18 08:10:10;;;;;;;13.93;12.60;;;10.70;99.90;;;;;;6137139;23;20270;-64
2023/04/18 08:12:37;;;;;;;13.27;12.05;;;10.70;99.90;;;;;;6127879;23;20187;-64
2023/04/18 08:15:05;;;;;;;14.38;12.98;;;10.80;99.90;;;;;;6146003;23;20227;-64
2023/04/18 08:17:33;;;;;;;13.65;12.27;;;10.90;99.90;;;;;;6134984;23;20396;-65
2023/04/18 08:20:03;;;;;;;13.93;12.30;;;11.10;99.90;;;;;;6138925;23;20213;-64
2023/04/18 08:22:30;;;;;;;12.77;11.57;;;11.20;99.90;;;;;;6147501;23;20186;-64
2023/04/18 08:24:59;;;;;;;13.35;12.05;;;11.40;99.90;;;;;;6132604;23;20230;-64
2023/04/18 08:27:26;;;;;;;12.77;11.57;;;11.60;99.90;;;;;;6126008;23;20253;-64
2023/04/18 08:29:54;;;;;;;13.30;12.20;;;11.80;99.90;;;;;;6125615;23;20214;-63
2023/04/18 08:32:21;;;;;;;13.50;12.30;;;12.10;99.90;;;;;;6122356;23;20257;-64
2023/04/18 08:34:49;;;;;;;13.23;11.90;;;12.40;99.90;;;;;;6127470;23;20945;-64
2023/04/18 08:37:16;;;;;;;14.25;12.85;;;12.20;99.90;;;;;;6142708;23;20403;-64
2023/04/18 08:39:43;;;;;;;14.27;12.98;;;12.30;99.90;;;;;;6138831;23;20209;-64
2023/04/18 08:42:11;;;;;;;13.60;12.30;;;12.40;99.90;;;;;;6145867;23;20199;-64
2023/04/18 08:44:38;;;;;;;13.23;12.03;;;12.50;99.90;;;;;;6141781;23;20453;-64
2023/04/18 08:47:08;;;;;;;14.13;12.82;;;12.50;99.90;;;;;;6137993;23;20437;-64
2023/04/18 08:49:35;;;;;;;14.90;13.50;;;12.40;99.90;;;;;;6133554;23;20213;-63
2023/04/18 08:52:09;;;;;;;14.80;13.50;;;12.40;99.90;;;;;;6139772;23;20438;-63
2023/04/18 08:54:37;;;;;;;14.10;12.82;;;12.40;99.90;;;;;;6121198;23;20535;-65
2023/04/18 08:57:06;;;;;;;16.30;12.93;;;12.50;99.90;;;;;;6130402;23;20233;-64
2023/04/18 08:59:34;;;;;;;14.00;12.70;;;12.60;99.90;;;;;;6136883;23;20458;-64
2023/04/18 09:02:02;;;;;;;13.63;12.50;;;12.70;99.90;;;;;;6137648;23;20512;-64
2023/04/18 09:04:36;;;;;;;13.27;12.07;;;12.80;99.90;;;;;;6140381;23;20444;-64
2023/04/18 09:07:05;;;;;;;13.67;12.47;;;13.00;99.90;;;;;;6135940;23;20445;-64
2023/04/18 09:09:40;;;;;;;13.67;12.27;;;13.40;99.90;;;;;;6129189;23;20519;-64
2023/04/18 09:12:10;;;;;;;13.60;12.40;;;13.30;99.90;;;;;;6146181;23;20785;-64
2023/04/18 09:14:41;;;;;;;14.03;12.73;;;13.30;99.90;;;;;;6124545;23;20500;-63
2023/04/18 09:17:10;;;;;;;13.47;12.27;;;13.30;99.90;;;;;;6140808;23;20431;-64
2023/04/18 09:19:45;;;;;;;13.27;12.17;;;13.10;99.90;;;;;;6138971;23;20548;-63
2023/04/18 09:22:13;;;;;;;14.48;13.27;;;13.00;99.90;;;;;;6139285;23;20429;-63
2023/04/18 09:24:49;;;;;;;13.63;12.43;;;12.80;99.90;;;;;;6132177;23;20194;-63
2023/04/18 09:27:16;;;;;;;14.00;12.63;;;12.70;99.90;;;;;;6143071;23;20440;-64
2023/04/18 09:29:46;;;;;;;13.00;11.63;;;12.60;99.90;;;;;;6132699;23;20465;-64
2023/04/18 09:32:23;;;;;;;13.98;12.68;;;12.60;99.90;;;;;;6142843;23;20433;-63
2023/04/18 09:34:53;;;;;;;13.90;12.70;;;12.50;99.90;;;;;;6143729;23;20249;-64
2023/04/18 09:37:21;;;;;;;14.15;12.88;;;12.40;99.90;;;;;;6146009;23;20265;-63
2023/04/18 09:39:49;;;;;;;14.05;12.75;;;12.40;99.90;;;;;;6132799;23;20203;-63
2023/04/18 09:42:17;;;;;;;13.50;12.30;;;12.20;99.90;;;;;;6126082;23;20201;-64
2023/04/18 09:45:03;;;;;;;14.30;12.80;;;12.10;99.90;;;;;;6123754;23;20599;-64
2023/04/18 09:47:33;;;;;;;13.43;12.13;;;12.10;99.90;;;;;;6143369;23;20639;-63
2023/04/18 09:50:01;;;;;;;12.20;11.10;;;12.20;99.90;;;;;;6141346;23;20191;-63
2023/04/18 09:52:33;;;;;;;13.13;11.98;;;12.40;99.90;;;;;;6145934;23;20214;-64
2023/04/18 09:55:02;;;;;;;14.18;12.80;;;12.50;99.90;;;;;;6138890;23;20302;-64
2023/04/18 09:57:31;;;;;;;12.20;11.00;;;12.70;99.90;;;;;;6142263;23;20252;-63
2023/04/18 10:00:16;;;;;;;13.80;12.50;;;12.80;99.90;;;;;;6135145;23;20529;-63
2023/04/18 10:02:52;;;;;;;12.50;11.40;;;12.70;99.90;;;;;;6145036;23;20185;-64
2023/04/18 10:05:23;;;;;;;12.70;11.53;;;12.90;99.90;;;;;;6137443;23;20725;-64
2023/04/18 10:07:53;;;;;;;12.77;11.57;;;13.10;99.90;;;;;;6144433;23;20961;-64
2023/04/18 10:10:21;;;;;;;12.90;11.70;;;13.30;99.90;;;;;;6132466;23;20444;-64
2023/04/18 10:12:49;;;;;;;12.40;11.20;;;13.40;99.90;;;;;;6137429;23;20468;-64
2023/04/18 10:15:17;;;;;;;10.80;9.90;;;13.50;99.90;;;;;;6140499;23;20951;-64
2023/04/18 10:17:52;;;;;;;11.90;10.87;;;13.50;99.90;;;;;;6141713;23;20510;-64
2023/04/18 10:20:21;;;;;;;11.30;10.20;;;13.60;99.90;;;;;;6138212;23;20422;-63
2023/04/18 10:22:49;;;;;;;11.87;10.87;;;13.50;99.90;;;;;;6145604;23;20506;-64
2023/04/18 10:25:51;;;;;;;11.03;10.13;;;13.50;99.90;;;;;;6145367;23;20461;-63
2023/04/18 10:28:19;;;;;;;10.70;9.80;;;13.50;99.90;;;;;;6133991;23;20624;-63
2023/04/18 10:30:52;;;;;;;10.77;9.80;;;13.40;99.90;;;;;;6144426;23;20426;-63
2023/04/18 10:33:31;;;;;;;9.13;8.40;;;13.40;99.90;;;;;;6147436;23;20465;-63
2023/04/18 10:36:14;;;;;;;10.10;9.30;;;13.40;99.90;;;;;;6137063;23;20470;-63
2023/04/18 10:38:46;;;;;;;9.77;8.93;;;13.50;99.90;;;;;;6138508;23;20549;-64
2023/04/18 10:41:16;;;;;;;10.20;9.30;;;13.50;99.90;;;;;;6144460;23;20960;-64
2023/04/18 10:44:18;;;;;;;10.60;9.70;;;13.60;99.90;;;;;;6144298;23;20448;-64
2023/04/18 10:47:20;;;;;;;10.60;9.60;;;13.40;99.90;;;;;;6134732;23;20972;-63
2023/04/18 10:49:56;;;;;;;10.10;9.20;;;13.30;99.90;;;;;;6131040;23;20888;-64
2023/04/18 10:52:23;;;;;;;9.47;8.67;;;13.30;99.90;;;;;;6133080;23;20444;-64
2023/04/18 10:54:54;;;;;;;9.00;8.30;;;13.50;99.90;;;;;;6135510;23;20467;-64
2023/04/18 10:57:23;;;;;;;10.33;9.40;;;13.60;99.90;;;;;;6138416;23;20514;-64
2023/04/18 10:59:51;;;;;;;9.30;8.33;;;13.70;99.90;;;;;;6137310;23;20449;-64
2023/04/18 11:02:24;;;;;;;9.97;9.17;;;13.70;99.90;;;;;;6135988;23;20429;-63
2023/04/18 11:04:53;;;;;;;10.37;9.30;;;13.70;99.90;;;;;;6136243;23;20437;-64
2023/04/18 11:07:31;;;;;;;8.63;7.93;;;13.70;99.90;;;;;;6141589;23;20509;-64
2023/04/18 11:09:58;;;;;;;9.07;8.37;;;13.90;99.90;;;;;;6137973;23;20466;-64
2023/04/18 11:12:30;;;;;;;8.57;7.87;;;14.00;99.90;;;;;;6134131;23;20536;-64
2023/04/18 11:14:57;;;;;;;8.97;8.17;;;14.20;99.90;;;;;;6124632;23;20551;-63
2023/04/18 11:17:26;;;;;;;10.00;9.00;;;14.10;99.90;;;;;;6128550;23;20516;-65
2023/04/18 11:20:00;;;;;;;8.90;8.00;;;14.10;99.90;;;;;;6127400;23;20441;-64
2023/04/18 11:22:28;;;;;;;8.57;7.83;;;14.20;99.90;;;;;;6137106;23;21012;-65
2023/04/18 11:24:58;;;;;;;8.13;7.43;;;14.40;99.90;;;;;;6137564;23;20466;-64
2023/04/18 11:27:26;;;;;;;8.70;8.00;;;14.50;99.90;;;;;;6137113;23;20899;-64
2023/04/18 11:29:54;;;;;;;9.53;8.60;;;14.60;99.90;;;;;;6146480;23;20784;-64
2023/04/18 11:32:23;;;;;;;8.67;7.90;;;14.60;99.90;;;;;;6134003;23;20437;-65
2023/04/18 11:34:52;;;;;;;8.60;7.90;;;14.60;99.90;;;;;;6132066;23;20428;-64
2023/04/18 11:37:20;;;;;;;9.47;8.63;;;14.60;99.90;;;;;;6136637;23;20527;-64
2023/04/18 11:39:47;;;;;;;8.70;7.90;;;14.60;99.90;;;;;;6132812;23;20436;-64
2023/04/18 11:42:14;;;;;;;9.77;8.90;;;14.60;99.90;;;;;;6130004;23;20860;-65
2023/04/18 11:44:48;;;;;;;9.73;8.80;;;14.70;99.90;;;;;;6144587;23;20528;-64
2023/04/18 11:47:25;;;;;;;9.60;8.70;;;14.70;99.90;;;;;;6141717;23;20466;-64
2023/04/18 11:49:56;;;;;;;9.50;8.60;;;14.70;99.90;;;;;;6135932;23;20518;-63
2023/04/18 11:52:24;;;;;;;9.80;8.90;;;14.70;99.90;;;;;;6132537;23;20432;-63
2023/04/18 11:54:51;;;;;;;9.13;8.43;;;14.70;99.90;;;;;;6142032;23;20438;-63
2023/04/18 11:57:22;;;;;;;10.87;9.87;;;14.80;99.90;;;;;;6134960;23;20792;-63
2023/04/18 11:59:52;;;;;;;10.27;9.37;;;14.80;99.90;;;;;;6142239;23;20435;-63
2023/04/18 12:02:20;;;;;;;11.20;10.20;;;14.80;99.90;;;;;;6141197;23;21711;-63
2023/04/18 12:04:51;;;;;;;10.30;9.40;;;14.90;99.90;;;;;;6141348;23;20508;-63
2023/04/18 12:07:36;;;;;;;9.77;8.90;;;14.80;99.90;;;;;;6136764;23;20452;-63
2023/04/18 12:10:05;;;;;;;11.27;10.23;;;14.80;99.90;;;;;;6132888;23;20432;-63
2023/04/18 12:12:32;;;;;;;9.80;8.90;;;14.70;99.90;;;;;;6136738;23;20594;-63
2023/04/18 12:15:06;;;;;;;9.83;8.93;;;14.70;99.90;;;;;;6136999;23;20453;-63
2023/04/18 12:17:35;;;;;;;9.40;8.60;;;14.70;99.90;;;;;;6136484;23;20516;-63
2023/04/18 12:20:04;;;;;;;9.70;8.90;;;14.80;99.90;;;;;;6136349;23;20830;-63
2023/04/18 12:22:38;;;;;;;8.70;7.90;;;15.00;99.90;;;;;;6140699;23;20429;-64
2023/04/18 12:25:21;;;;;;;11.30;8.70;;;15.10;99.90;;;;;;6135540;23;20425;-63
2023/04/18 12:27:50;;;;;;;8.27;7.57;;;15.40;99.90;;;;;;6141132;23;20802;-64
2023/04/18 12:30:20;;;;;;;7.40;6.80;;;15.60;99.90;;;;;;6145975;23;20436;-64
2023/04/18 12:32:50;;;;;;;7.20;6.60;;;15.70;99.90;;;;;;6132860;23;20963;-63
2023/04/18 12:35:17;;;;;;;6.20;5.70;;;15.80;99.90;;;;;;6130761;23;21012;-63
2023/04/18 12:37:45;;;;;;;6.47;5.83;;;15.90;99.90;;;;;;6136777;23;20453;-64
2023/04/18 12:40:13;;;;;;;5.50;4.97;;;15.60;99.90;;;;;;6130790;23;20993;-63
2023/04/18 12:42:41;;;;;;;7.07;5.20;;;15.70;99.90;;;;;;6137054;23;20844;-64